createdAt,value
2023-01-25T00:00:38.418Z,7.00
2023-01-25T00:03:24.363Z,7.00
2023-01-25T00:06:09.893Z,7.00
2023-01-25T00:08:55.489Z,7.00
2023-01-25T00:11:41.800Z,7.00
2023-01-25T00:14:27.385Z,7.00
2023-01-25T00:17:12.984Z,7.00
2023-01-25T00:19:58.748Z,7.00
2023-01-25T00:22:43.910Z,7.00
2023-01-25T00:25:29.199Z,7.00
2023-01-25T00:28:14.471Z,7.00
2023-01-25T00:31:03.704Z,7.10
2023-01-25T00:34:06.429Z,7.10
2023-01-25T00:36:55.004Z,7.00
2023-01-25T00:39:40.919Z,7.10
2023-01-25T00:42:26.743Z,7.10
2023-01-25T00:45:12.485Z,7.10
2023-01-25T00:47:58.289Z,7.10
2023-01-25T00:50:43.758Z,7.10
2023-01-25T00:53:28.989Z,7.10
2023-01-25T00:56:14.879Z,7.10
2023-01-25T00:59:00.776Z,7.10
2023-01-25T01:01:46.591Z,7.10
2023-01-25T01:04:32.207Z,7.10
2023-01-25T01:07:17.846Z,7.10
2023-01-25T01:10:04.452Z,7.10
2023-01-25T01:12:51.011Z,7.10
2023-01-25T01:15:37.214Z,7.10
2023-01-25T01:18:23.235Z,7.10
2023-01-25T01:21:09.148Z,7.10
2023-01-25T01:23:55.194Z,7.10
2023-01-25T01:26:40.814Z,7.10
2023-01-25T01:29:26.079Z,7.10
2023-01-25T01:32:12.816Z,7.10
2023-01-25T01:34:58.841Z,7.10
2023-01-25T01:37:44.487Z,7.10
2023-01-25T01:40:30.513Z,7.10
2023-01-25T01:43:23.725Z,7.20
2023-01-25T01:46:13.936Z,7.20
2023-01-25T01:49:02.718Z,7.10
2023-01-25T01:51:49.953Z,7.20
2023-01-25T01:54:43.461Z,7.20
2023-01-25T01:57:35.377Z,7.20
2023-01-25T02:00:23.516Z,7.20
2023-01-25T02:03:10.109Z,7.20
2023-01-25T02:06:08.935Z,7.20
2023-01-25T02:08:58.440Z,7.20
2023-01-25T02:11:44.714Z,7.20
2023-01-25T02:14:30.764Z,7.20
2023-01-25T02:17:25.557Z,7.20
2023-01-25T02:20:35.550Z,7.20
2023-01-25T02:23:43.410Z,7.20
2023-01-25T02:26:28.705Z,7.20
2023-01-25T02:29:14.685Z,7.20
2023-01-25T02:32:02.643Z,7.20
2023-01-25T02:34:48.351Z,7.20
2023-01-25T02:37:33.904Z,7.10
2023-01-25T02:40:19.710Z,7.20
2023-01-25T02:43:05.898Z,7.20
2023-01-25T02:45:54.732Z,7.20
2023-01-25T02:48:40.174Z,7.20
2023-01-25T02:51:26.528Z,7.20
2023-01-25T02:54:14.735Z,7.10
2023-01-25T02:57:00.359Z,7.20
2023-01-25T02:59:51.079Z,7.10
2023-01-25T03:02:37.748Z,7.10
2023-01-25T03:05:23.945Z,7.10
2023-01-25T03:08:09.471Z,7.10
2023-01-25T03:10:59.219Z,7.10
2023-01-25T03:13:46.026Z,7.10
2023-01-25T03:16:31.800Z,7.10
2023-01-25T03:19:18.559Z,7.10
2023-01-25T03:22:06.847Z,7.10
2023-01-25T03:24:52.777Z,7.10
2023-01-25T03:27:39.564Z,7.10
2023-01-25T03:30:28.898Z,7.10
2023-01-25T03:33:14.788Z,7.10
2023-01-25T03:36:00.929Z,7.20
2023-01-25T03:38:46.871Z,7.20
2023-01-25T03:41:32.467Z,7.10
2023-01-25T03:44:18.651Z,7.20
2023-01-25T03:47:05.675Z,7.20
2023-01-25T03:49:52.387Z,7.20
2023-01-25T03:53:17.455Z,7.20
2023-01-25T03:56:08.398Z,7.20
2023-01-25T03:58:54.512Z,7.10
2023-01-25T04:01:41.419Z,7.10
2023-01-25T04:04:26.752Z,7.10
2023-01-25T04:07:12.705Z,7.10
2023-01-25T04:09:59.675Z,7.20
2023-01-25T04:12:45.505Z,7.10
2023-01-25T04:15:31.251Z,7.20
2023-01-25T04:18:23.283Z,7.20
2023-01-25T04:21:09.062Z,7.20
2023-01-25T04:23:54.382Z,7.20
2023-01-25T04:26:40.069Z,7.20
2023-01-25T04:29:35.460Z,7.20
2023-01-25T04:32:26.778Z,7.20
2023-01-25T04:35:12.991Z,7.20
2023-01-25T04:37:59.420Z,7.20
2023-01-25T04:40:52.383Z,7.30
2023-01-25T04:43:38.212Z,7.20
2023-01-25T04:46:27.862Z,7.20
2023-01-25T04:49:13.712Z,7.20
2023-01-25T04:51:58.940Z,7.20
2023-01-25T04:54:44.328Z,7.20
2023-01-25T04:57:31.151Z,7.20
2023-01-25T05:00:17.535Z,7.20
2023-01-25T05:03:03.353Z,7.20
2023-01-25T05:05:49.023Z,7.20
2023-01-25T05:08:38.727Z,7.10
2023-01-25T05:11:24.576Z,7.20
2023-01-25T05:14:23.881Z,7.20
2023-01-25T05:17:09.784Z,7.20
2023-01-25T05:19:55.697Z,7.20
2023-01-25T05:22:42.515Z,7.20
2023-01-25T05:25:46.684Z,7.20
2023-01-25T05:28:33.831Z,7.10
2023-01-25T05:31:39.423Z,7.10
2023-01-25T05:34:26.067Z,7.10
2023-01-25T05:37:13.237Z,7.10
2023-01-25T05:40:02.277Z,7.00
2023-01-25T05:42:55.434Z,6.90
2023-01-25T05:45:42.571Z,6.90
2023-01-25T05:48:29.650Z,6.90
2023-01-25T05:51:16.635Z,6.90
2023-01-25T05:54:02.648Z,6.80
2023-01-25T05:56:49.372Z,6.80
2023-01-25T05:59:35.468Z,6.80
2023-01-25T06:02:23.630Z,6.80
2023-01-25T06:05:09.838Z,6.70
2023-01-25T06:07:55.536Z,6.70
2023-01-25T06:10:43.999Z,6.80
2023-01-25T06:13:29.685Z,6.80
2023-01-25T06:16:17.994Z,6.80
2023-01-25T06:19:04.797Z,6.80
2023-01-25T06:21:53.302Z,6.80
2023-01-25T06:24:39.082Z,6.80
2023-01-25T06:27:25.019Z,6.80
2023-01-25T06:30:10.963Z,6.80
2023-01-25T06:32:59.915Z,6.80
2023-01-25T06:35:45.868Z,6.80
2023-01-25T06:38:32.045Z,6.90
2023-01-25T06:41:18.393Z,6.90
2023-01-25T06:44:03.952Z,6.90
2023-01-25T06:46:50.014Z,6.90
2023-01-25T06:49:36.011Z,6.90
2023-01-25T06:52:21.435Z,6.90
2023-01-25T06:55:08.524Z,7.00
2023-01-25T06:57:58.514Z,7.00
2023-01-25T07:00:44.426Z,7.00
2023-01-25T07:03:30.758Z,7.00
2023-01-25T07:06:16.548Z,7.00
2023-01-25T07:09:06.239Z,7.00
2023-01-25T07:11:51.869Z,7.00
2023-01-25T07:14:37.597Z,7.00
2023-01-25T07:17:22.865Z,7.00
2023-01-25T07:20:08.643Z,7.10
2023-01-25T07:22:54.397Z,7.00
2023-01-25T07:25:43.711Z,7.00
2023-01-25T07:28:29.141Z,7.00
2023-01-25T07:31:15.826Z,7.00
2023-01-25T07:34:01.476Z,7.00
2023-01-25T07:36:47.093Z,7.00
2023-01-25T07:39:32.552Z,7.00
2023-01-25T07:42:18.629Z,7.10
2023-01-25T07:45:11.421Z,7.10
2023-01-25T07:48:00.233Z,7.10
2023-01-25T07:50:46.793Z,7.10
2023-01-25T07:53:32.346Z,7.10
2023-01-25T07:56:19.521Z,7.20
2023-01-25T07:59:05.330Z,7.20
2023-01-25T08:01:50.710Z,7.20
2023-01-25T08:04:36.291Z,7.30
2023-01-25T08:07:23.520Z,7.30
2023-01-25T08:10:10.251Z,7.40
2023-01-25T08:12:55.907Z,7.40
2023-01-25T08:15:41.553Z,7.40
2023-01-25T08:18:27.407Z,7.40
2023-01-25T08:21:12.948Z,7.50
2023-01-25T08:24:00.198Z,7.60
2023-01-25T08:26:45.986Z,7.70
2023-01-25T08:29:31.854Z,7.70
2023-01-25T08:32:17.510Z,7.70
2023-01-25T08:35:03.233Z,7.80
2023-01-25T08:37:48.929Z,7.80
2023-01-25T08:40:37.001Z,7.80
2023-01-25T08:43:24.834Z,7.80
2023-01-25T08:46:10.642Z,7.80
2023-01-25T08:48:56.974Z,7.80
2023-01-25T08:51:42.963Z,7.80
2023-01-25T08:54:28.584Z,7.80
2023-01-25T08:57:14.135Z,7.80
2023-01-25T08:59:59.798Z,7.80
2023-01-25T09:02:45.570Z,8.00
2023-01-25T09:05:33.454Z,8.10
2023-01-25T09:08:19.051Z,8.20
2023-01-25T09:11:05.725Z,8.20
2023-01-25T09:13:51.510Z,8.20
2023-01-25T09:16:37.035Z,8.20
2023-01-25T09:19:22.840Z,8.30
2023-01-25T09:22:10.667Z,8.40
2023-01-25T09:24:56.485Z,8.60
2023-01-25T09:27:42.324Z,8.80
2023-01-25T09:30:40.813Z,9.00
2023-01-25T09:33:38.459Z,9.10
2023-01-25T09:36:23.964Z,9.20
2023-01-25T09:39:12.242Z,9.20
2023-01-25T09:41:58.411Z,9.50
2023-01-25T09:44:55.327Z,9.60
2023-01-25T09:47:49.708Z,9.80
2023-01-25T09:50:37.176Z,9.90
2023-01-25T09:53:24.296Z,9.90
2023-01-25T09:56:15.853Z,9.80
2023-01-25T09:59:04.360Z,9.70
2023-01-25T10:01:58.976Z,9.60
2023-01-25T10:04:45.695Z,9.60
2023-01-25T10:07:43.484Z,9.60
2023-01-25T10:10:42.721Z,9.60
2023-01-25T10:13:31.745Z,9.40
2023-01-25T10:16:26.099Z,9.40
2023-01-25T10:19:30.832Z,9.30
2023-01-25T10:22:16.441Z,9.30
2023-01-25T10:25:21.061Z,9.30
2023-01-25T10:28:18.008Z,9.20
2023-01-25T10:31:06.366Z,9.40
2023-01-25T10:33:53.055Z,9.50
2023-01-25T10:36:39.297Z,9.80
2023-01-25T10:39:24.746Z,9.70
2023-01-25T10:42:12.617Z,9.90
2023-01-25T10:44:58.410Z,9.90
2023-01-25T10:47:52.603Z,9.90
2023-01-25T10:50:46.318Z,10.00
2023-01-25T10:53:32.027Z,9.80
2023-01-25T10:56:25.451Z,9.90
2023-01-25T10:59:24.701Z,9.80
2023-01-25T11:02:29.242Z,9.90
2023-01-25T11:05:27.104Z,9.80
2023-01-25T11:08:26.346Z,9.80
2023-01-25T11:11:21.936Z,9.80
2023-01-25T11:14:19.593Z,9.70
2023-01-25T11:17:06.002Z,9.80
2023-01-25T11:20:07.871Z,9.90
2023-01-25T11:22:55.197Z,10.00
2023-01-25T11:25:41.086Z,10.10
2023-01-25T11:28:26.634Z,10.30
2023-01-25T11:31:12.933Z,10.40
2023-01-25T11:33:58.884Z,10.60
2023-01-25T11:36:49.666Z,10.90
2023-01-25T11:39:38.056Z,10.90
2023-01-25T11:42:23.250Z,10.70
2023-01-25T11:45:27.930Z,10.80
2023-01-25T11:48:16.587Z,10.90
2023-01-25T11:51:25.679Z,11.10
2023-01-25T11:54:29.918Z,11.00
2023-01-25T11:57:18.292Z,11.00
2023-01-25T12:00:22.642Z,11.00
2023-01-25T12:03:18.481Z,11.10
2023-01-25T12:06:12.999Z,11.00
2023-01-25T12:09:19.533Z,10.80
2023-01-25T12:12:31.669Z,10.90
2023-01-25T12:15:35.763Z,10.80
2023-01-25T12:18:24.332Z,10.70
2023-01-25T12:21:31.977Z,10.90
2023-01-25T12:24:37.608Z,11.00
2023-01-25T12:27:26.490Z,11.20
2023-01-25T12:30:12.454Z,11.10
2023-01-25T12:33:13.904Z,10.70
2023-01-25T12:36:03.035Z,10.80
2023-01-25T12:38:52.781Z,10.90
2023-01-25T12:41:38.087Z,10.70
2023-01-25T12:44:25.754Z,10.60
2023-01-25T12:47:15.279Z,10.60
2023-01-25T12:50:19.551Z,10.50
2023-01-25T12:53:10.927Z,10.50
2023-01-25T12:55:57.914Z,10.70
2023-01-25T12:58:46.713Z,10.70
2023-01-25T13:01:35.690Z,10.70
2023-01-25T13:04:40.285Z,10.80
2023-01-25T13:07:39.595Z,10.90
2023-01-25T13:10:28.458Z,10.80
2023-01-25T13:13:21.731Z,10.60
2023-01-25T13:16:22.822Z,10.70
2023-01-25T13:19:18.311Z,10.70
2023-01-25T13:22:04.073Z,10.70
2023-01-25T13:25:02.544Z,10.60
2023-01-25T13:27:48.133Z,10.50
2023-01-25T13:30:34.498Z,10.60
2023-01-25T13:33:34.542Z,10.60
2023-01-25T13:36:39.717Z,10.60
2023-01-25T13:39:25.371Z,10.40
2023-01-25T13:42:10.761Z,10.30
2023-01-25T13:44:59.300Z,10.30
2023-01-25T13:47:45.691Z,10.30
2023-01-25T13:50:38.029Z,10.50
2023-01-25T13:53:24.907Z,10.50
2023-01-25T13:56:27.894Z,10.40
2023-01-25T13:59:24.072Z,10.40
2023-01-25T14:02:20.178Z,10.40
2023-01-25T14:05:08.114Z,10.30
2023-01-25T14:07:56.051Z,10.50
2023-01-25T14:10:44.113Z,10.50
2023-01-25T14:13:29.470Z,10.50
2023-01-25T14:16:17.887Z,10.50
2023-01-25T14:19:22.197Z,10.40
2023-01-25T14:22:21.440Z,10.40
2023-01-25T14:25:13.188Z,10.40
2023-01-25T14:28:01.931Z,10.40
2023-01-25T14:30:51.803Z,10.30
2023-01-25T14:33:40.436Z,10.30
2023-01-25T14:36:31.374Z,10.30
2023-01-25T14:39:25.150Z,10.30
2023-01-25T14:42:10.959Z,10.20
2023-01-25T14:44:56.490Z,10.20
2023-01-25T14:47:45.282Z,10.30
2023-01-25T14:50:36.472Z,10.30
2023-01-25T14:53:23.758Z,10.20
2023-01-25T14:56:26.527Z,10.00
2023-01-25T14:59:24.315Z,9.90
2023-01-25T15:02:29.109Z,9.90
2023-01-25T15:05:20.700Z,9.90
2023-01-25T15:08:06.326Z,9.80
2023-01-25T15:10:53.252Z,9.70
2023-01-25T15:13:44.446Z,9.70
2023-01-25T15:16:34.395Z,9.70
2023-01-25T15:19:24.703Z,9.70
2023-01-25T15:22:10.383Z,9.70
2023-01-25T15:24:58.426Z,9.60
2023-01-25T15:27:44.391Z,9.60
2023-01-25T15:30:29.996Z,9.70
2023-01-25T15:33:20.207Z,9.60
2023-01-25T15:36:05.670Z,9.60
2023-01-25T15:38:51.084Z,9.50
2023-01-25T15:41:36.902Z,9.50
2023-01-25T15:44:22.611Z,9.40
2023-01-25T15:47:09.366Z,9.40
2023-01-25T15:49:55.116Z,9.40
2023-01-25T15:52:40.754Z,8.90
2023-01-25T15:55:26.529Z,9.40
2023-01-25T15:58:23.635Z,9.40
2023-01-25T16:01:09.464Z,9.40
2023-01-25T16:03:55.591Z,9.40
2023-01-25T16:06:42.022Z,9.40
2023-01-25T16:09:30.812Z,9.30
2023-01-25T16:12:16.214Z,9.30
2023-01-25T16:15:01.771Z,9.30
2023-01-25T16:17:47.205Z,9.30
2023-01-25T16:20:32.458Z,9.20
2023-01-25T16:23:18.333Z,9.20
2023-01-25T16:26:03.984Z,9.20
2023-01-25T16:28:49.650Z,9.20
2023-01-25T16:31:35.487Z,9.10
2023-01-25T16:34:22.110Z,9.00
2023-01-25T16:37:07.627Z,9.00
2023-01-25T16:39:53.723Z,8.90
2023-01-25T16:42:39.195Z,8.90
2023-01-25T16:45:25.136Z,8.90
2023-01-25T16:48:13.442Z,8.90
2023-01-25T16:50:58.796Z,8.90
2023-01-25T16:53:45.131Z,8.80
2023-01-25T16:56:33.109Z,8.80
2023-01-25T16:59:18.993Z,8.80
2023-01-25T17:02:04.482Z,8.80
2023-01-25T17:04:49.603Z,8.80
2023-01-25T17:07:35.786Z,8.80
2023-01-25T17:10:21.423Z,8.70
2023-01-25T17:13:08.738Z,8.70
2023-01-25T17:15:55.747Z,8.60
2023-01-25T17:18:41.510Z,8.50
2023-01-25T17:21:27.620Z,8.50
2023-01-25T17:24:14.905Z,8.40
2023-01-25T17:27:02.230Z,8.30
2023-01-25T17:29:47.882Z,8.30
2023-01-25T17:32:33.563Z,8.20
2023-01-25T17:35:18.913Z,8.10
2023-01-25T17:38:04.654Z,8.10
2023-01-25T17:40:50.189Z,8.10
2023-01-25T17:43:35.951Z,8.00
2023-01-25T17:46:25.496Z,7.90
2023-01-25T17:49:12.244Z,7.80
2023-01-25T17:51:57.758Z,7.80
2023-01-25T17:54:43.558Z,7.70
2023-01-25T17:57:31.212Z,7.60
2023-01-25T18:00:16.843Z,7.60
2023-01-25T18:03:02.427Z,7.50
2023-01-25T18:05:48.310Z,7.40
2023-01-25T18:08:34.130Z,7.40
2023-01-25T18:11:21.286Z,7.30
2023-01-25T18:14:08.995Z,7.30
2023-01-25T18:16:54.426Z,7.20
2023-01-25T18:19:40.085Z,7.20
2023-01-25T18:22:25.707Z,7.20
2023-01-25T18:25:30.025Z,7.10
2023-01-25T18:28:15.528Z,7.10
2023-01-25T18:31:02.687Z,7.10
2023-01-25T18:33:48.489Z,7.10
2023-01-25T18:36:33.915Z,7.10
2023-01-25T18:39:19.706Z,7.00
2023-01-25T18:42:05.027Z,7.00
2023-01-25T18:44:50.774Z,7.00
2023-01-25T18:47:36.435Z,7.00
2023-01-25T18:50:21.883Z,7.00
2023-01-25T18:53:09.362Z,7.00
2023-01-25T18:56:02.088Z,7.00
2023-01-25T18:58:47.917Z,7.00
2023-01-25T19:01:33.648Z,7.00
2023-01-25T19:04:19.465Z,7.00
2023-01-25T19:07:04.941Z,7.00
2023-01-25T19:09:50.578Z,7.00
2023-01-25T19:12:35.894Z,7.00
2023-01-25T19:15:21.775Z,6.90
2023-01-25T19:18:07.359Z,6.90
2023-01-25T19:20:53.361Z,6.90
2023-01-25T19:23:39.567Z,6.90
2023-01-25T19:26:25.783Z,6.80
2023-01-25T19:29:13.150Z,6.90
2023-01-25T19:31:58.522Z,6.80
2023-01-25T19:34:44.065Z,6.80
2023-01-25T19:37:29.461Z,6.80
2023-01-25T19:40:15.099Z,6.80
2023-01-25T19:43:00.901Z,6.70
2023-01-25T19:45:46.612Z,6.70
2023-01-25T19:48:34.597Z,6.60
2023-01-25T19:51:20.049Z,6.60
2023-01-25T19:54:07.335Z,6.60
2023-01-25T19:56:53.150Z,6.50
2023-01-25T19:59:38.887Z,6.60
2023-01-25T20:02:24.257Z,6.50
2023-01-25T20:05:10.375Z,6.50
2023-01-25T20:07:55.985Z,6.50
2023-01-25T20:10:41.279Z,6.50
2023-01-25T20:13:27.134Z,6.50
2023-01-25T20:16:13.236Z,6.40
2023-01-25T20:18:59.410Z,6.40
2023-01-25T20:21:45.344Z,6.40
2023-01-25T20:24:30.896Z,6.40
2023-01-25T20:27:16.320Z,6.40
2023-01-25T20:30:01.733Z,6.30
2023-01-25T20:32:47.526Z,6.30
2023-01-25T20:35:33.300Z,6.30
2023-01-25T20:38:18.799Z,6.30
2023-01-25T20:41:06.271Z,6.20
2023-01-25T20:43:52.684Z,6.20
2023-01-25T20:46:39.608Z,6.10
2023-01-25T20:49:25.379Z,6.10
2023-01-25T20:52:13.741Z,6.10
2023-01-25T20:54:59.227Z,6.00
2023-01-25T20:57:45.279Z,6.00
2023-01-25T21:00:30.893Z,5.90
2023-01-25T21:03:16.751Z,5.90
2023-01-25T21:06:02.342Z,5.90
2023-01-25T21:08:48.067Z,5.80
2023-01-25T21:11:34.607Z,5.80
2023-01-25T21:14:20.203Z,5.70
2023-01-25T21:17:05.651Z,5.70
2023-01-25T21:19:51.431Z,5.70
2023-01-25T21:22:36.727Z,5.70
2023-01-25T21:25:22.651Z,5.70
2023-01-25T21:28:09.107Z,5.70
2023-01-25T21:30:54.983Z,5.70
2023-01-25T21:33:40.878Z,5.60
2023-01-25T21:36:26.234Z,5.60
2023-01-25T21:39:12.061Z,5.60
2023-01-25T21:41:57.915Z,5.50
2023-01-25T21:45:02.563Z,5.50
2023-01-25T21:47:48.056Z,5.50
2023-01-25T21:51:09.361Z,5.50
2023-01-25T21:53:54.849Z,5.50
2023-01-25T21:56:40.750Z,5.40
2023-01-25T21:59:26.633Z,5.40
2023-01-25T22:02:14.054Z,5.40
2023-01-25T22:04:59.947Z,5.40
2023-01-25T22:07:45.439Z,5.40
2023-01-25T22:10:30.736Z,5.40
2023-01-25T22:13:16.469Z,5.30
2023-01-25T22:16:01.824Z,5.30
2023-01-25T22:18:47.863Z,5.20
2023-01-25T22:21:33.358Z,5.30
2023-01-25T22:24:18.897Z,5.20
2023-01-25T22:27:24.312Z,5.20
2023-01-25T22:30:10.839Z,5.20
2023-01-25T22:32:56.548Z,5.10
2023-01-25T22:35:41.980Z,5.10
2023-01-25T22:38:27.771Z,5.00
2023-01-25T22:41:14.787Z,4.90
2023-01-25T22:44:00.447Z,4.90
2023-01-25T22:46:46.423Z,4.90
2023-01-25T22:49:32.001Z,4.90
2023-01-25T22:52:17.774Z,4.80
2023-01-25T22:55:03.108Z,4.80
2023-01-25T22:57:48.634Z,4.80
2023-01-25T23:00:34.027Z,4.70
2023-01-25T23:03:19.829Z,4.70
2023-01-25T23:06:06.898Z,4.70
2023-01-25T23:09:03.328Z,4.60
2023-01-25T23:11:49.020Z,4.60
2023-01-25T23:14:54.127Z,4.60
2023-01-25T23:17:58.582Z,4.60
2023-01-25T23:20:44.541Z,4.50
2023-01-25T23:23:30.232Z,4.50
2023-01-25T23:26:16.410Z,4.50
2023-01-25T23:29:02.216Z,4.40
2023-01-25T23:31:47.610Z,4.40
2023-01-25T23:34:36.987Z,4.40
2023-01-25T23:37:23.251Z,4.30
2023-01-25T23:40:09.584Z,4.30
2023-01-25T23:42:55.138Z,4.30
2023-01-25T23:45:42.493Z,4.20
2023-01-25T23:48:27.939Z,4.20
2023-01-25T23:51:14.910Z,4.10
2023-01-25T23:54:00.797Z,4.20
2023-01-25T23:56:46.029Z,4.20
2023-01-25T23:59:33.211Z,4.10
